KPSN

Palestine Municipal Airport

Palestine, Texas, USA
METAR KPSN 212155Z AUTO 00000KT 10SM CLR 32/22 A2989 RMK AO2 T03200222
Observed Flight Rules
Jun-21 @ 21:55 UTC (12 minutes ago) Visual Flight Rules
Visibility Clouds
10 miles
  • Clear skies
Temperatures Readings
Current 32°C / 90°F
Dewpoint 22°C / 72°F
Humidity 55%
Altimeter 29.89" Hg
Pressure 1012 hPa
Elevation 129
METAR KPSN 212155Z AUTO 00000KT 10SM CLR 32/22 A2989 RMK AO2 T03200222
Observed Flight Rules
Jun-21 @ 21:55 UTC
(12 minutes ago)
VFR
Clouds
  • Clear skies
Temperature Dewpoint
32°C / 90°F 22°C / 72°F
Humidity Altimeter Pressure
55% 29.89" Hg 1012 hPa